sensor_id;sensor_type;location;lat;lon;timestamp;pressure;altitude;pressure_sealevel;temperature;humidity
15193;BME280;7697;51.630;7.484;2023-03-13T00:02:07;99695.41;;;11.64;86.67
15193;BME280;7697;51.630;7.484;2023-03-13T00:07:09;99680.84;;;11.55;86.40
15193;BME280;7697;51.630;7.484;2023-03-13T00:12:12;99674.88;;;11.59;86.82
15193;BME280;7697;51.630;7.484;2023-03-13T00:17:16;99664.50;;;11.58;87.27
15193;BME280;7697;51.630;7.484;2023-03-13T00:22:17;99668.66;;;11.65;87.31
15193;BME280;7697;51.630;7.484;2023-03-13T00:27:19;99647.56;;;11.59;87.71
15193;BME280;7697;51.630;7.484;2023-03-13T00:32:22;99647.66;;;11.64;87.74
15193;BME280;7697;51.630;7.484;2023-03-13T00:37:24;99645.59;;;11.66;88.37
15193;BME280;7697;51.630;7.484;2023-03-13T00:42:26;99628.53;;;11.62;88.41
15193;BME280;7697;51.630;7.484;2023-03-13T00:47:29;99628.66;;;11.67;89.18
15193;BME280;7697;51.630;7.484;2023-03-13T00:52:31;99612.84;;;11.60;90.38
15193;BME280;7697;51.630;7.484;2023-03-13T00:57:32;99596.00;;;11.55;91.14
15193;BME280;7697;51.630;7.484;2023-03-13T01:02:41;99590.00;;;11.48;92.19
15193;BME280;7697;51.630;7.484;2023-03-13T01:07:43;99580.31;;;11.42;92.85
15193;BME280;7697;51.630;7.484;2023-03-13T01:12:45;99562.91;;;11.34;93.58
15193;BME280;7697;51.630;7.484;2023-03-13T01:17:48;99549.53;;;11.29;94.10
15193;BME280;7697;51.630;7.484;2023-03-13T01:22:50;99540.53;;;11.18;95.19
15193;BME280;7697;51.630;7.484;2023-03-13T01:27:52;99536.84;;;11.19;95.64
15193;BME280;7697;51.630;7.484;2023-03-13T01:32:55;99512.66;;;11.16;95.45
15193;BME280;7697;51.630;7.484;2023-03-13T01:37:57;99501.03;;;11.17;95.74
15193;BME280;7697;51.630;7.484;2023-03-13T01:42:59;99497.22;;;11.24;96.36
15193;BME280;7697;51.630;7.484;2023-03-13T01:48:03;99504.59;;;11.22;97.03
15193;BME280;7697;51.630;7.484;2023-03-13T01:53:05;99487.53;;;11.18;97.72
15193;BME280;7697;51.630;7.484;2023-03-13T01:58:07;99470.59;;;11.19;98.61
15193;BME280;7697;51.630;7.484;2023-03-13T02:03:14;99438.09;;;11.12;99.74
15193;BME280;7697;51.630;7.484;2023-03-13T02:08:20;99438.00;;;11.07;100.00
15193;BME280;7697;51.630;7.484;2023-03-13T02:13:26;99424.75;;;11.07;100.00
15193;BME280;7697;51.630;7.484;2023-03-13T02:18:30;99396.41;;;10.96;100.00
15193;BME280;7697;51.630;7.484;2023-03-13T02:23:35;99377.28;;;10.94;100.00
15193;BME280;7697;51.630;7.484;2023-03-13T02:28:40;99375.69;;;10.93;100.00
15193;BME280;7697;51.630;7.484;2023-03-13T02:33:43;99355.06;;;10.83;100.00
15193;BME280;7697;51.630;7.484;2023-03-13T02:38:50;99344.03;;;10.86;100.00
15193;BME280;7697;51.630;7.484;2023-03-13T02:43:55;99332.97;;;10.89;100.00
15193;BME280;7697;51.630;7.484;2023-03-13T02:48:57;99310.31;;;10.82;100.00
15193;BME280;7697;51.630;7.484;2023-03-13T02:54:01;99317.88;;;10.90;100.00
15193;BME280;7697;51.630;7.484;2023-03-13T02:59:06;99284.28;;;10.79;100.00
15193;BME280;7697;51.630;7.484;2023-03-13T03:04:08;99291.50;;;10.83;100.00
15193;BME280;7697;51.630;7.484;2023-03-13T03:09:10;99287.13;;;10.89;100.00
15193;BME280;7697;51.630;7.484;2023-03-13T03:14:14;99264.91;;;10.90;100.00
15193;BME280;7697;51.630;7.484;2023-03-13T03:19:16;99267.88;;;10.94;100.00
15193;BME280;7697;51.630;7.484;2023-03-13T03:24:17;99266.53;;;10.91;100.00
15193;BME280;7697;51.630;7.484;2023-03-13T03:29:20;99255.00;;;10.97;100.00
15193;BME280;7697;51.630;7.484;2023-03-13T03:34:22;99240.03;;;10.91;100.00
15193;BME280;7697;51.630;7.484;2023-03-13T03:39:24;99245.19;;;10.98;100.00
15193;BME280;7697;51.630;7.484;2023-03-13T03:44:27;99227.47;;;10.98;100.00
15193;BME280;7697;51.630;7.484;2023-03-13T03:49:29;99232.19;;;10.96;100.00
15193;BME280;7697;51.630;7.484;2023-03-13T03:54:30;99228.81;;;11.01;100.00
15193;BME280;7697;51.630;7.484;2023-03-13T03:59:34;99229.16;;;11.04;100.00
15193;BME280;7697;51.630;7.484;2023-03-13T04:04:35;99222.81;;;11.05;100.00
15193;BME280;7697;51.630;7.484;2023-03-13T04:09:37;99208.78;;;11.05;100.00
15193;BME280;7697;51.630;7.484;2023-03-13T04:14:40;99224.88;;;11.15;100.00
15193;BME280;7697;51.630;7.484;2023-03-13T04:19:42;99227.72;;;11.25;100.00
15193;BME280;7697;51.630;7.484;2023-03-13T04:24:44;99215.50;;;11.24;100.00
15193;BME280;7697;51.630;7.484;2023-03-13T04:29:47;99202.66;;;11.33;100.00
15193;BME280;7697;51.630;7.484;2023-03-13T04:34:48;99196.31;;;11.34;100.00
15193;BME280;7697;51.630;7.484;2023-03-13T04:39:50;99173.03;;;11.36;100.00
15193;BME280;7697;51.630;7.484;2023-03-13T04:44:54;99179.78;;;11.43;100.00
15193;BME280;7697;51.630;7.484;2023-03-13T04:49:55;99187.53;;;11.45;100.00
15193;BME280;7697;51.630;7.484;2023-03-13T04:54:57;99178.25;;;11.47;100.00
15193;BME280;7697;51.630;7.484;2023-03-13T05:00:00;99184.47;;;11.53;100.00
15193;BME280;7697;51.630;7.484;2023-03-13T05:05:02;99164.38;;;11.57;100.00
15193;BME280;7697;51.630;7.484;2023-03-13T05:10:04;99172.91;;;11.59;100.00
15193;BME280;7697;51.630;7.484;2023-03-13T05:15:09;99176.19;;;11.66;100.00
15193;BME280;7697;51.630;7.484;2023-03-13T05:20:11;99155.53;;;11.68;100.00
15193;BME280;7697;51.630;7.484;2023-03-13T05:25:13;99172.69;;;11.77;100.00
15193;BME280;7697;51.630;7.484;2023-03-13T05:30:17;99156.03;;;11.82;100.00
15193;BME280;7697;51.630;7.484;2023-03-13T05:35:19;99138.94;;;11.89;100.00
15193;BME280;7697;51.630;7.484;2023-03-13T05:40:21;99145.09;;;11.95;100.00
15193;BME280;7697;51.630;7.484;2023-03-13T05:45:24;99138.34;;;12.04;100.00
15193;BME280;7697;51.630;7.484;2023-03-13T05:50:26;99151.00;;;12.19;100.00
15193;BME280;7697;51.630;7.484;2023-03-13T05:55:28;99144.97;;;12.23;100.00
15193;BME280;7697;51.630;7.484;2023-03-13T06:00:31;99140.22;;;12.25;100.00
15193;BME280;7697;51.630;7.484;2023-03-13T06:05:33;99150.47;;;12.38;100.00
15193;BME280;7697;51.630;7.484;2023-03-13T06:10:35;99145.16;;;12.38;100.00
15193;BME280;7697;51.630;7.484;2023-03-13T06:15:38;99138.84;;;12.45;100.00
15193;BME280;7697;51.630;7.484;2023-03-13T06:20:39;99133.06;;;12.48;100.00
15193;BME280;7697;51.630;7.484;2023-03-13T06:25:41;99112.13;;;12.51;100.00
15193;BME280;7697;51.630;7.484;2023-03-13T06:30:48;99128.69;;;12.58;100.00
15193;BME280;7697;51.630;7.484;2023-03-13T06:35:51;99117.56;;;12.61;100.00
15193;BME280;7697;51.630;7.484;2023-03-13T06:40:53;99118.91;;;12.64;100.00
15193;BME280;7697;51.630;7.484;2023-03-13T06:46:02;99123.59;;;12.78;100.00
15193;BME280;7697;51.630;7.484;2023-03-13T06:51:04;99122.03;;;12.83;100.00
15193;BME280;7697;51.630;7.484;2023-03-13T06:56:10;99128.88;;;13.00;100.00
15193;BME280;7697;51.630;7.484;2023-03-13T07:01:14;99127.91;;;13.11;100.00
15193;BME280;7697;51.630;7.484;2023-03-13T07:06:17;99138.97;;;13.25;100.00
15193;BME280;7697;51.630;7.484;2023-03-13T07:11:18;99119.88;;;13.33;100.00
15193;BME280;7697;51.630;7.484;2023-03-13T07:16:22;99115.78;;;13.47;100.00
15193;BME280;7697;51.630;7.484;2023-03-13T07:21:24;99117.97;;;13.61;100.00
15193;BME280;7697;51.630;7.484;2023-03-13T07:26:25;99124.44;;;13.70;100.00
15193;BME280;7697;51.630;7.484;2023-03-13T07:31:28;99102.94;;;13.76;100.00
15193;BME280;7697;51.630;7.484;2023-03-13T07:36:33;99098.22;;;13.88;100.00
15193;BME280;7697;51.630;7.484;2023-03-13T07:41:35;99093.75;;;13.99;100.00
15193;BME280;7697;51.630;7.484;2023-03-13T07:46:38;99081.84;;;14.12;100.00
15193;BME280;7697;51.630;7.484;2023-03-13T07:51:40;99081.59;;;14.13;100.00
15193;BME280;7697;51.630;7.484;2023-03-13T07:56:42;99074.47;;;14.34;100.00
15193;BME280;7697;51.630;7.484;2023-03-13T08:46:12;99082.59;;;14.59;97.54
15193;BME280;7697;51.630;7.484;2023-03-13T08:51:14;99061.00;;;14.56;96.90
15193;BME280;7697;51.630;7.484;2023-03-13T08:56:17;99070.31;;;14.58;96.73
15193;BME280;7697;51.630;7.484;2023-03-13T09:01:22;99083.41;;;14.70;96.24
15193;BME280;7697;51.630;7.484;2023-03-13T09:06:24;99083.16;;;14.72;95.95
15193;BME280;7697;51.630;7.484;2023-03-13T09:11:27;99076.78;;;14.73;95.95
15193;BME280;7697;51.630;7.484;2023-03-13T09:16:31;99080.78;;;14.75;95.90
15193;BME280;7697;51.630;7.484;2023-03-13T09:21:34;99063.72;;;14.86;95.67
15193;BME280;7697;51.630;7.484;2023-03-13T09:26:36;99062.16;;;15.26;94.96
15193;BME280;7697;51.630;7.484;2023-03-13T09:31:40;99053.09;;;15.37;95.08
15193;BME280;7697;51.630;7.484;2023-03-13T09:36:42;99056.28;;;15.59;94.98
15193;BME280;7697;51.630;7.484;2023-03-13T09:41:50;99047.41;;;15.84;92.94
15193;BME280;7697;51.630;7.484;2023-03-13T09:47:00;99051.94;;;15.99;92.59
15193;BME280;7697;51.630;7.484;2023-03-13T09:52:14;99028.09;;;16.12;91.79
15193;BME280;7697;51.630;7.484;2023-03-13T09:57:21;99041.09;;;16.34;91.65
15193;BME280;7697;51.630;7.484;2023-03-13T10:02:31;99032.56;;;16.32;90.95
15193;BME280;7697;51.630;7.484;2023-03-13T10:07:33;99041.91;;;16.30;91.21
15193;BME280;7697;51.630;7.484;2023-03-13T10:12:41;99029.84;;;16.37;90.43
15193;BME280;7697;51.630;7.484;2023-03-13T10:17:45;99027.59;;;16.60;91.08
15193;BME280;7697;51.630;7.484;2023-03-13T10:22:50;99013.84;;;17.15;90.84
15193;BME280;7697;51.630;7.484;2023-03-13T10:27:54;99023.44;;;17.21;89.32
15193;BME280;7697;51.630;7.484;2023-03-13T10:33:00;99012.88;;;17.35;88.36
15193;BME280;7697;51.630;7.484;2023-03-13T10:38:04;99007.22;;;17.37;88.96
15193;BME280;7697;51.630;7.484;2023-03-13T10:43:12;98979.31;;;17.72;88.02
15193;BME280;7697;51.630;7.484;2023-03-13T10:48:19;98994.72;;;18.46;86.12
15193;BME280;7697;51.630;7.484;2023-03-13T10:53:24;98976.19;;;18.68;81.55
15193;BME280;7697;51.630;7.484;2023-03-13T10:58:34;98960.59;;;18.14;82.74
15193;BME280;7697;51.630;7.484;2023-03-13T11:03:38;98957.72;;;17.87;83.05
15193;BME280;7697;51.630;7.484;2023-03-13T11:08:40;98952.13;;;17.83;82.95
15193;BME280;7697;51.630;7.484;2023-03-13T11:13:43;98951.16;;;18.35;80.60
15193;BME280;7697;51.630;7.484;2023-03-13T11:19:17;98946.31;;;18.56;79.14
15193;BME280;7697;51.630;7.484;2023-03-13T11:24:27;98951.91;;;18.79;77.79
15193;BME280;7697;51.630;7.484;2023-03-13T11:29:40;98919.47;;;18.56;76.20
15193;BME280;7697;51.630;7.484;2023-03-13T11:34:50;98934.50;;;18.90;77.41
15193;BME280;7697;51.630;7.484;2023-03-13T11:39:59;98916.56;;;19.04;76.09
15193;BME280;7697;51.630;7.484;2023-03-13T11:45:07;98924.00;;;18.93;75.60
15193;BME280;7697;51.630;7.484;2023-03-13T11:50:34;98889.63;;;19.09;74.78
15193;BME280;7697;51.630;7.484;2023-03-13T11:55:42;98916.28;;;19.19;72.33
15193;BME280;7697;51.630;7.484;2023-03-13T12:00:49;98873.34;;;19.46;71.27
15193;BME280;7697;51.630;7.484;2023-03-13T12:05:58;98883.31;;;19.32;71.39
15193;BME280;7697;51.630;7.484;2023-03-13T12:11:11;98883.09;;;19.29;71.63
15193;BME280;7697;51.630;7.484;2023-03-13T12:16:20;98868.97;;;19.51;69.74
15193;BME280;7697;51.630;7.484;2023-03-13T12:21:29;98864.78;;;19.44;70.91
15193;BME280;7697;51.630;7.484;2023-03-13T12:26:38;98835.19;;;19.50;69.94
15193;BME280;7697;51.630;7.484;2023-03-13T12:31:47;98840.53;;;19.63;69.52
15193;BME280;7697;51.630;7.484;2023-03-13T12:36:58;98827.81;;;19.55;68.08
15193;BME280;7697;51.630;7.484;2023-03-13T12:42:18;98828.50;;;19.33;71.06
15193;BME280;7697;51.630;7.484;2023-03-13T12:47:30;98810.69;;;19.37;70.11
15193;BME280;7697;51.630;7.484;2023-03-13T12:52:47;98818.38;;;19.30;70.85
15193;BME280;7697;51.630;7.484;2023-03-13T12:58:15;98806.75;;;19.21;70.49
15193;BME280;7697;51.630;7.484;2023-03-13T13:03:29;98805.81;;;19.53;70.10
15193;BME280;7697;51.630;7.484;2023-03-13T13:08:47;98795.34;;;20.01;68.29
15193;BME280;7697;51.630;7.484;2023-03-13T13:13:49;98800.34;;;19.94;67.35
15193;BME280;7697;51.630;7.484;2023-03-13T13:18:51;98807.88;;;19.70;67.52
15193;BME280;7697;51.630;7.484;2023-03-13T13:24:38;98786.38;;;19.70;67.49
15193;BME280;7697;51.630;7.484;2023-03-13T13:29:53;98789.59;;;19.94;67.27
15193;BME280;7697;51.630;7.484;2023-03-13T13:35:01;98760.06;;;19.58;67.04
15193;BME280;7697;51.630;7.484;2023-03-13T13:40:18;98757.59;;;19.34;67.56
15193;BME280;7697;51.630;7.484;2023-03-13T13:45:23;98752.22;;;19.34;68.62
15193;BME280;7697;51.630;7.484;2023-03-13T13:50:26;98762.28;;;19.29;67.72
15193;BME280;7697;51.630;7.484;2023-03-13T13:55:46;98759.69;;;19.24;67.90
15193;BME280;7697;51.630;7.484;2023-03-13T14:00:52;98766.19;;;19.09;68.60
15193;BME280;7697;51.630;7.484;2023-03-13T14:05:59;98743.34;;;18.84;70.02
15193;BME280;7697;51.630;7.484;2023-03-13T14:11:20;98749.91;;;18.92;70.87
15193;BME280;7697;51.630;7.484;2023-03-13T14:16:25;98730.72;;;18.85;69.99
15193;BME280;7697;51.630;7.484;2023-03-13T14:21:28;98730.91;;;18.74;69.13
15193;BME280;7697;51.630;7.484;2023-03-13T14:26:31;98725.06;;;18.59;70.31
15193;BME280;7697;51.630;7.484;2023-03-13T14:31:35;98724.44;;;18.62;71.09
15193;BME280;7697;51.630;7.484;2023-03-13T14:36:47;98728.09;;;18.52;71.40
15193;BME280;7697;51.630;7.484;2023-03-13T14:41:51;98702.41;;;18.51;71.63
15193;BME280;7697;51.630;7.484;2023-03-13T14:46:54;98671.09;;;18.47;71.86
15193;BME280;7697;51.630;7.484;2023-03-13T14:51:59;98667.44;;;18.43;72.09
15193;BME280;7697;51.630;7.484;2023-03-13T14:57:13;98676.97;;;18.49;72.20
15193;BME280;7697;51.630;7.484;2023-03-13T15:02:19;98680.44;;;18.49;73.01
15193;BME280;7697;51.630;7.484;2023-03-13T15:07:24;98675.47;;;18.43;73.73
15193;BME280;7697;51.630;7.484;2023-03-13T15:12:28;98642.59;;;18.23;74.98
15193;BME280;7697;51.630;7.484;2023-03-13T15:17:31;98626.69;;;17.99;76.49
15193;BME280;7697;51.630;7.484;2023-03-13T15:22:35;98635.63;;;17.95;77.85
15193;BME280;7697;51.630;7.484;2023-03-13T15:27:39;98635.00;;;17.84;78.75
15193;BME280;7697;51.630;7.484;2023-03-13T15:32:41;98644.81;;;17.56;81.50
15193;BME280;7697;51.630;7.484;2023-03-13T15:37:45;98620.44;;;17.07;84.74
15193;BME280;7697;51.630;7.484;2023-03-13T15:42:48;98598.66;;;16.76;86.75
15193;BME280;7697;51.630;7.484;2023-03-13T15:47:50;98605.09;;;16.75;88.57
15193;BME280;7697;51.630;7.484;2023-03-13T15:52:52;98587.97;;;16.76;88.53
15193;BME280;7697;51.630;7.484;2023-03-13T15:57:55;98587.81;;;16.86;86.92
15193;BME280;7697;51.630;7.484;2023-03-13T16:03:00;98568.97;;;16.77;86.78
15193;BME280;7697;51.630;7.484;2023-03-13T16:08:01;98560.50;;;16.89;86.49
15193;BME280;7697;51.630;7.484;2023-03-13T16:13:05;98556.97;;;16.94;84.40
15193;BME280;7697;51.630;7.484;2023-03-13T16:18:09;98544.88;;;16.96;83.09
15193;BME280;7697;51.630;7.484;2023-03-13T16:23:15;98539.31;;;16.93;82.11
15193;BME280;7697;51.630;7.484;2023-03-13T16:28:18;98525.94;;;16.93;79.79
15193;BME280;7697;51.630;7.484;2023-03-13T16:33:20;98530.03;;;16.90;79.14
15193;BME280;7697;51.630;7.484;2023-03-13T16:38:22;98528.63;;;16.74;78.80
15193;BME280;7697;51.630;7.484;2023-03-13T16:43:25;98542.16;;;16.64;79.27
15193;BME280;7697;51.630;7.484;2023-03-13T16:48:27;98532.06;;;16.56;80.31
15193;BME280;7697;51.630;7.484;2023-03-13T16:53:29;98525.59;;;16.43;79.65
15193;BME280;7697;51.630;7.484;2023-03-13T16:58:32;98517.34;;;16.39;79.27
15193;BME280;7697;51.630;7.484;2023-03-13T17:03:34;98532.66;;;16.34;77.07
15193;BME280;7697;51.630;7.484;2023-03-13T17:08:38;98497.81;;;16.20;78.34
15193;BME280;7697;51.630;7.484;2023-03-13T17:13:43;98511.19;;;16.20;78.17
15193;BME280;7697;51.630;7.484;2023-03-13T17:18:47;98510.81;;;16.08;78.66
15193;BME280;7697;51.630;7.484;2023-03-13T17:23:50;98494.91;;;15.98;78.06
15193;BME280;7697;51.630;7.484;2023-03-13T17:28:56;98529.09;;;15.96;78.23
15193;BME280;7697;51.630;7.484;2023-03-13T17:33:59;98515.31;;;15.89;76.99
15193;BME280;7697;51.630;7.484;2023-03-13T17:39:05;98513.78;;;15.83;76.83
15193;BME280;7697;51.630;7.484;2023-03-13T17:44:09;98520.47;;;15.80;77.35
15193;BME280;7697;51.630;7.484;2023-03-13T17:49:13;98517.81;;;15.80;77.04
15193;BME280;7697;51.630;7.484;2023-03-13T17:54:15;98524.47;;;15.83;76.52
15193;BME280;7697;51.630;7.484;2023-03-13T17:59:19;98509.06;;;15.74;77.16
15193;BME280;7697;51.630;7.484;2023-03-13T18:04:20;98491.00;;;15.66;76.48
15193;BME280;7697;51.630;7.484;2023-03-13T18:09:22;98503.22;;;15.72;76.62
15193;BME280;7697;51.630;7.484;2023-03-13T18:14:25;98497.88;;;15.72;76.89
15193;BME280;7697;51.630;7.484;2023-03-13T18:19:27;98488.28;;;15.71;76.96
15193;BME280;7697;51.630;7.484;2023-03-13T18:24:30;98488.84;;;15.68;77.88
15193;BME280;7697;51.630;7.484;2023-03-13T18:29:33;98466.00;;;15.57;78.46
15193;BME280;7697;51.630;7.484;2023-03-13T18:34:35;98460.47;;;15.54;78.92
15193;BME280;7697;51.630;7.484;2023-03-13T18:39:36;98466.59;;;15.49;80.07
15193;BME280;7697;51.630;7.484;2023-03-13T18:44:40;98473.88;;;15.44;80.81
15193;BME280;7697;51.630;7.484;2023-03-13T18:49:42;98476.28;;;15.40;81.17
15193;BME280;7697;51.630;7.484;2023-03-13T18:54:44;98474.22;;;15.37;81.45
15193;BME280;7697;51.630;7.484;2023-03-13T18:59:47;98484.91;;;15.32;81.91
15193;BME280;7697;51.630;7.484;2023-03-13T19:04:49;98495.66;;;15.27;82.15
15193;BME280;7697;51.630;7.484;2023-03-13T19:09:52;98500.53;;;15.20;82.58
15193;BME280;7697;51.630;7.484;2023-03-13T19:14:55;98503.97;;;15.20;82.20
15193;BME280;7697;51.630;7.484;2023-03-13T19:19:57;98499.47;;;15.16;82.29
15193;BME280;7697;51.630;7.484;2023-03-13T19:24:58;98493.63;;;15.14;81.75
15193;BME280;7697;51.630;7.484;2023-03-13T19:30:02;98492.59;;;15.10;81.95
15193;BME280;7697;51.630;7.484;2023-03-13T19:35:05;98479.31;;;15.05;82.49
15193;BME280;7697;51.630;7.484;2023-03-13T19:40:15;98455.91;;;14.96;82.67
15193;BME280;7697;51.630;7.484;2023-03-13T19:45:19;98445.84;;;14.93;82.81
15193;BME280;7697;51.630;7.484;2023-03-13T19:50:22;98457.75;;;15.01;82.68
15193;BME280;7697;51.630;7.484;2023-03-13T19:55:26;98444.44;;;14.96;82.72
15193;BME280;7697;51.630;7.484;2023-03-13T20:00:29;98418.41;;;14.88;82.72
15193;BME280;7697;51.630;7.484;2023-03-13T20:05:31;98402.47;;;14.83;82.86
15193;BME280;7697;51.630;7.484;2023-03-13T20:10:33;98394.81;;;14.76;83.16
15193;BME280;7697;51.630;7.484;2023-03-13T20:15:36;98401.75;;;14.72;83.30
15193;BME280;7697;51.630;7.484;2023-03-13T20:20:39;98414.03;;;14.68;83.25
15193;BME280;7697;51.630;7.484;2023-03-13T20:25:40;98406.66;;;14.60;83.61
15193;BME280;7697;51.630;7.484;2023-03-13T20:30:44;98413.09;;;14.54;83.78
15193;BME280;7697;51.630;7.484;2023-03-13T20:35:47;98408.38;;;14.46;83.56
15193;BME280;7697;51.630;7.484;2023-03-13T20:40:51;98432.34;;;14.46;84.46
15193;BME280;7697;51.630;7.484;2023-03-13T20:45:54;98435.56;;;14.38;84.17
15193;BME280;7697;51.630;7.484;2023-03-13T20:50:56;98444.91;;;14.35;84.33
15193;BME280;7697;51.630;7.484;2023-03-13T20:55:58;98426.31;;;14.30;84.59
15193;BME280;7697;51.630;7.484;2023-03-13T21:01:04;98425.03;;;14.17;84.82
15193;BME280;7697;51.630;7.484;2023-03-13T21:06:08;98418.38;;;14.15;85.30
15193;BME280;7697;51.630;7.484;2023-03-13T21:11:10;98401.72;;;14.04;84.98
15193;BME280;7697;51.630;7.484;2023-03-13T21:16:15;98417.69;;;14.04;85.02
15193;BME280;7697;51.630;7.484;2023-03-13T21:21:18;98408.16;;;13.88;85.46
15193;BME280;7697;51.630;7.484;2023-03-13T21:26:21;98414.59;;;13.82;85.54
15193;BME280;7697;51.630;7.484;2023-03-13T21:31:24;98419.38;;;13.85;85.99
15193;BME280;7697;51.630;7.484;2023-03-13T21:36:26;98389.31;;;13.79;85.94
15193;BME280;7697;51.630;7.484;2023-03-13T21:41:28;98378.41;;;13.81;85.98
15193;BME280;7697;51.630;7.484;2023-03-13T21:46:35;98356.09;;;13.72;86.00
15193;BME280;7697;51.630;7.484;2023-03-13T21:51:37;98366.75;;;13.72;86.41
15193;BME280;7697;51.630;7.484;2023-03-13T21:56:39;98354.81;;;13.64;85.74
15193;BME280;7697;51.630;7.484;2023-03-13T22:01:42;98330.66;;;13.56;85.97
15193;BME280;7697;51.630;7.484;2023-03-13T22:06:44;98342.91;;;13.57;85.94
15193;BME280;7697;51.630;7.484;2023-03-13T22:11:46;98352.47;;;13.52;86.35
15193;BME280;7697;51.630;7.484;2023-03-13T22:16:49;98363.16;;;13.42;86.41
15193;BME280;7697;51.630;7.484;2023-03-13T22:21:51;98365.56;;;13.39;86.58
15193;BME280;7697;51.630;7.484;2023-03-13T22:26:52;98391.66;;;13.32;86.36
15193;BME280;7697;51.630;7.484;2023-03-13T22:31:55;98404.94;;;13.27;86.88
15193;BME280;7697;51.630;7.484;2023-03-13T22:36:57;98416.38;;;13.27;87.00
15193;BME280;7697;51.630;7.484;2023-03-13T22:41:59;98451.44;;;13.34;86.71
15193;BME280;7697;51.630;7.484;2023-03-13T22:47:02;98441.34;;;13.36;86.59
15193;BME280;7697;51.630;7.484;2023-03-13T22:52:04;98433.41;;;13.31;86.63
15193;BME280;7697;51.630;7.484;2023-03-13T22:57:06;98438.69;;;13.36;86.68
15193;BME280;7697;51.630;7.484;2023-03-13T23:02:09;98412.91;;;13.42;86.70
15193;BME280;7697;51.630;7.484;2023-03-13T23:07:11;98404.66;;;13.38;86.63
15193;BME280;7697;51.630;7.484;2023-03-13T23:12:13;98417.94;;;13.43;86.74
15193;BME280;7697;51.630;7.484;2023-03-13T23:17:16;98382.56;;;13.43;86.27
15193;BME280;7697;51.630;7.484;2023-03-13T23:22:18;98358.94;;;13.36;86.98
15193;BME280;7697;51.630;7.484;2023-03-13T23:27:21;98349.88;;;13.37;86.63
15193;BME280;7697;51.630;7.484;2023-03-13T23:32:24;98385.56;;;13.31;87.06
15193;BME280;7697;51.630;7.484;2023-03-13T23:37:26;98352.63;;;13.22;87.13
15193;BME280;7697;51.630;7.484;2023-03-13T23:42:28;98361.13;;;13.19;87.07
15193;BME280;7697;51.630;7.484;2023-03-13T23:47:32;98378.69;;;13.15;87.26
15193;BME280;7697;51.630;7.484;2023-03-13T23:52:34;98354.22;;;13.13;87.36
15193;BME280;7697;51.630;7.484;2023-03-13T23:57:35;98359.78;;;13.17;87.38
